createdAt,value
2022-09-29T00:00:32.087Z,98407.28
2022-09-29T00:01:21.599Z,98409.31
2022-09-29T00:02:15.520Z,98404.50
2022-09-29T00:03:06.447Z,98412.41
2022-09-29T00:03:55.315Z,98413.88
2022-09-29T00:04:44.854Z,98403.19
2022-09-29T00:05:36.486Z,98402.84
2022-09-29T00:06:28.017Z,98397.50
2022-09-29T00:07:24.384Z,98402.38
2022-09-29T00:08:21.819Z,98402.47
2022-09-29T00:10:31.726Z,98398.97
2022-09-29T00:11:20.733Z,98399.63
2022-09-29T00:13:42.706Z,98407.09
2022-09-29T00:14:34.987Z,98405.69
2022-09-29T00:15:23.458Z,98408.19
2022-09-29T00:16:17.796Z,98405.50
2022-09-29T00:17:07.595Z,98408.19
2022-09-29T00:18:13.091Z,98409.56
2022-09-29T00:19:06.025Z,98402.03
2022-09-29T00:19:52.695Z,98398.72
2022-09-29T00:20:42.889Z,98406.53
2022-09-29T00:21:32.291Z,98396.59
2022-09-29T00:22:23.837Z,98406.44
2022-09-29T00:24:16.854Z,98403.13
2022-09-29T00:25:07.302Z,98395.41
2022-09-29T00:25:57.366Z,98402.38
2022-09-29T00:26:47.047Z,98393.09
2022-09-29T00:27:37.256Z,98394.94
2022-09-29T00:29:29.996Z,98398.25
2022-09-29T00:30:17.572Z,98401.75
2022-09-29T00:30:57.427Z,98397.03
2022-09-29T00:31:48.654Z,98396.03
2022-09-29T00:32:35.806Z,98393.38
2022-09-29T00:33:32.728Z,98400.75
2022-09-29T00:34:21.278Z,98393.19
2022-09-29T00:35:13.398Z,98394.19
2022-09-29T00:36:06.660Z,98398.72
2022-09-29T00:36:50.332Z,98400.53
2022-09-29T00:37:35.208Z,98395.19
2022-09-29T00:38:22.094Z,98392.75
2022-09-29T00:39:07.789Z,98395.19
2022-09-29T00:39:58.841Z,98400.53
2022-09-29T00:40:45.332Z,98390.72
2022-09-29T00:41:37.933Z,98392.53
2022-09-29T00:42:26.746Z,98390.72
2022-09-29T00:43:15.223Z,98392.75
2022-09-29T00:44:10.723Z,98395.41
2022-09-29T00:45:06.063Z,98388.41
2022-09-29T00:45:55.861Z,98383.88
2022-09-29T00:46:58.360Z,98393.56
2022-09-29T00:47:45.719Z,98393.56
2022-09-29T00:49:36.262Z,98402.09
2022-09-29T00:50:23.353Z,98395.69
2022-09-29T00:51:13.774Z,98393.56
2022-09-29T00:51:56.024Z,98396.50
2022-09-29T00:52:54.112Z,98395.19
2022-09-29T00:53:45.077Z,98398.41
2022-09-29T00:54:32.683Z,98390.88
2022-09-29T00:55:27.091Z,98392.53
2022-09-29T00:56:13.677Z,98393.91
2022-09-29T00:57:04.992Z,98400.72
2022-09-29T00:57:53.683Z,98397.22
2022-09-29T00:58:42.526Z,98392.16
2022-09-29T00:59:52.797Z,98393.19
2022-09-29T01:00:41.801Z,98396.41
2022-09-29T01:01:30.942Z,98388.22
2022-09-29T01:02:20.099Z,98390.22
2022-09-29T01:03:07.052Z,98394.91
2022-09-29T01:03:52.806Z,98396.78
2022-09-29T01:04:43.366Z,98393.47
2022-09-29T01:05:28.781Z,98392.97
2022-09-29T01:06:16.423Z,98387.66
2022-09-29T01:07:03.112Z,98391.16
2022-09-29T01:07:52.240Z,98391.16
2022-09-29T01:08:48.404Z,98385.28
2022-09-29T01:09:38.023Z,98387.19
2022-09-29T01:10:28.829Z,98388.31
2022-09-29T01:11:16.966Z,98385.47
2022-09-29T01:12:12.077Z,98385.00
2022-09-29T01:13:03.236Z,98394.38
2022-09-29T01:13:52.045Z,98385.00
2022-09-29T01:14:42.985Z,98398.03
2022-09-29T01:15:33.886Z,98398.53
2022-09-29T01:16:25.441Z,98399.25
2022-09-29T01:17:21.072Z,98391.53
2022-09-29T01:18:10.789Z,98399.72
2022-09-29T01:18:59.210Z,98391.06
2022-09-29T01:19:46.220Z,98397.59
2022-09-29T01:20:37.382Z,98397.03
2022-09-29T01:21:17.311Z,98390.97
2022-09-29T01:22:06.572Z,98397.78
2022-09-29T01:23:09.188Z,98402.28
2022-09-29T01:23:54.991Z,98396.03
2022-09-29T01:24:41.050Z,98395.88
2022-09-29T01:25:22.356Z,98400.72
2022-09-29T01:26:10.623Z,98401.84
2022-09-29T01:27:12.546Z,98401.84
2022-09-29T01:28:17.336Z,98399.81
2022-09-29T01:29:07.836Z,98404.97
2022-09-29T01:29:49.810Z,98401.47
2022-09-29T01:30:53.967Z,98402.84
2022-09-29T01:31:41.636Z,98401.47
2022-09-29T01:32:42.111Z,98398.53
2022-09-29T01:33:31.783Z,98405.50
2022-09-29T01:34:26.470Z,98407.81
2022-09-29T01:35:13.695Z,98405.16
2022-09-29T01:35:57.151Z,98410.47
2022-09-29T01:36:44.948Z,98412.88
2022-09-29T01:37:26.689Z,98413.25
2022-09-29T01:38:08.807Z,98405.41
2022-09-29T01:38:54.572Z,98411.66
2022-09-29T01:39:45.180Z,98408.97
2022-09-29T01:40:58.397Z,98404.50
2022-09-29T01:41:52.667Z,98411.97
2022-09-29T01:42:42.275Z,98415.44
2022-09-29T01:43:56.567Z,98411.00
2022-09-29T01:44:47.146Z,98413.03
2022-09-29T01:45:29.144Z,98409.75
2022-09-29T01:46:22.169Z,98409.56
2022-09-29T01:47:19.300Z,98412.41
2022-09-29T01:48:05.649Z,98414.22
2022-09-29T01:48:54.281Z,98413.50
2022-09-29T01:49:45.603Z,98411.47
2022-09-29T01:50:36.467Z,98414.41
2022-09-29T01:51:23.649Z,98405.88
2022-09-29T01:52:06.701Z,98407.53
2022-09-29T01:52:54.352Z,98413.69
2022-09-29T01:53:44.161Z,98414.53
2022-09-29T01:54:40.611Z,98414.53
2022-09-29T01:55:28.341Z,98412.78
2022-09-29T01:56:15.254Z,98406.13
2022-09-29T01:57:39.504Z,98416.00
2022-09-29T01:58:29.205Z,98415.63
2022-09-29T01:59:18.430Z,98410.28
2022-09-29T02:00:29.244Z,98412.97
2022-09-29T02:01:16.318Z,98408.53
2022-09-29T02:02:01.577Z,98414.91
2022-09-29T02:02:52.028Z,98414.53
2022-09-29T02:04:01.517Z,98410.03
2022-09-29T02:04:48.747Z,98414.16
2022-09-29T02:05:35.400Z,98407.19
2022-09-29T02:06:26.878Z,98405.31
2022-09-29T02:07:14.220Z,98406.91
2022-09-29T02:08:04.423Z,98404.97
2022-09-29T02:09:10.887Z,98407.25
2022-09-29T02:10:00.220Z,98412.31
2022-09-29T02:10:50.702Z,98411.66
2022-09-29T02:11:37.688Z,98412.50
2022-09-29T02:12:26.040Z,98415.00
2022-09-29T02:13:16.096Z,98412.97
2022-09-29T02:14:04.499Z,98412.78
2022-09-29T02:15:00.789Z,98412.31
2022-09-29T02:15:54.216Z,98413.69
2022-09-29T02:16:44.050Z,98416.72
2022-09-29T02:17:35.024Z,98413.69
2022-09-29T02:18:22.432Z,98416.72
2022-09-29T02:19:12.013Z,98412.00
2022-09-29T02:20:06.078Z,98411.84
2022-09-29T02:20:51.322Z,98410.19
2022-09-29T02:21:40.833Z,98416.72
2022-09-29T02:22:27.459Z,98418.38
2022-09-29T02:23:14.668Z,98413.03
2022-09-29T02:24:02.183Z,98417.16
2022-09-29T02:24:48.785Z,98414.81
2022-09-29T02:25:41.320Z,98418.66
2022-09-29T02:26:26.782Z,98420.31
2022-09-29T02:27:17.229Z,98426.66
2022-09-29T02:28:05.338Z,98419.66
2022-09-29T02:28:52.453Z,98420.88
2022-09-29T02:29:39.709Z,98416.34
2022-09-29T02:30:23.663Z,98417.16
2022-09-29T02:31:12.990Z,98418.03
2022-09-29T02:32:08.155Z,98415.16
2022-09-29T02:33:02.556Z,98422.63
2022-09-29T02:33:54.960Z,98422.81
2022-09-29T02:34:43.653Z,98425.75
2022-09-29T02:35:26.845Z,98420.41
2022-09-29T02:36:20.435Z,98423.81
2022-09-29T02:37:23.661Z,98428.06
2022-09-29T02:38:19.492Z,98418.22
2022-09-29T02:39:36.070Z,98427.22
2022-09-29T02:40:49.091Z,98423.09
2022-09-29T02:42:03.549Z,98417.66
2022-09-29T02:42:51.832Z,98423.28
2022-09-29T02:43:45.953Z,98420.97
2022-09-29T02:44:36.885Z,98420.97
2022-09-29T02:45:14.510Z,98416.00
2022-09-29T02:46:08.529Z,98420.69
2022-09-29T02:47:03.698Z,98423.16
2022-09-29T02:48:07.888Z,98424.34
2022-09-29T02:49:14.094Z,98411.72
2022-09-29T02:50:03.477Z,98418.75
2022-09-29T02:51:07.205Z,98418.38
2022-09-29T02:52:00.474Z,98417.56
2022-09-29T02:52:58.195Z,98421.41
2022-09-29T02:53:42.225Z,98422.03
2022-09-29T02:54:27.768Z,98421.69
2022-09-29T02:55:30.406Z,98423.06
2022-09-29T02:56:29.328Z,98428.88
2022-09-29T02:57:38.422Z,98425.66
2022-09-29T02:58:28.649Z,98421.31
2022-09-29T02:59:28.040Z,98426.75
2022-09-29T03:00:39.986Z,98428.31
2022-09-29T03:01:32.180Z,98423.81
2022-09-29T03:02:28.468Z,98426.84
2022-09-29T03:03:17.722Z,98428.59
2022-09-29T03:04:12.739Z,98426.47
2022-09-29T03:05:03.150Z,98422.91
2022-09-29T03:05:56.589Z,98429.03
2022-09-29T03:06:46.664Z,98421.50
2022-09-29T03:08:39.460Z,98415.00
2022-09-29T03:09:31.653Z,98419.84
2022-09-29T03:10:30.236Z,98426.84
2022-09-29T03:11:22.526Z,98424.09
2022-09-29T03:12:13.689Z,98424.09
2022-09-29T03:13:11.149Z,98419.47
2022-09-29T03:14:01.901Z,98422.03
2022-09-29T03:14:46.233Z,98424.34
2022-09-29T03:15:40.886Z,98426.19
2022-09-29T03:16:28.337Z,98423.63
2022-09-29T03:17:17.065Z,98426.56
2022-09-29T03:18:10.205Z,98426.31
2022-09-29T03:19:00.444Z,98419.19
2022-09-29T03:19:51.909Z,98422.03
2022-09-29T03:20:46.182Z,98425.34
2022-09-29T03:21:34.931Z,98416.72
2022-09-29T03:22:22.231Z,98422.03
2022-09-29T03:23:15.975Z,98420.69
2022-09-29T03:24:10.361Z,98421.69
2022-09-29T03:25:07.547Z,98417.06
2022-09-29T03:26:00.751Z,98415.06
2022-09-29T03:26:54.379Z,98411.56
2022-09-29T03:27:47.963Z,98418.56
2022-09-29T03:28:41.345Z,98415.72
2022-09-29T03:29:35.487Z,98415.72
2022-09-29T03:30:37.152Z,98416.00
2022-09-29T03:31:32.613Z,98423.63
2022-09-29T03:32:24.399Z,98417.28
2022-09-29T03:33:17.709Z,98419.28
2022-09-29T03:34:11.935Z,98419.56
2022-09-29T03:35:06.268Z,98414.91
2022-09-29T03:36:08.279Z,98424.53
2022-09-29T03:37:01.734Z,98414.91
2022-09-29T03:37:56.751Z,98421.06
2022-09-29T03:38:50.959Z,98420.88
2022-09-29T03:39:46.618Z,98418.22
2022-09-29T03:40:42.710Z,98421.25
2022-09-29T03:41:33.276Z,98423.72
2022-09-29T03:42:23.957Z,98415.63
2022-09-29T03:43:17.427Z,98422.25
2022-09-29T03:44:07.975Z,98419.47
2022-09-29T03:44:59.807Z,98416.34
2022-09-29T03:45:55.776Z,98420.59
2022-09-29T03:46:47.385Z,98422.25
2022-09-29T03:47:39.500Z,98418.66
2022-09-29T03:48:31.480Z,98428.22
2022-09-29T03:49:27.348Z,98422.31
2022-09-29T03:50:19.331Z,98417.00
2022-09-29T03:51:16.868Z,98422.16
2022-09-29T03:52:09.085Z,98426.47
2022-09-29T03:53:00.186Z,98421.59
2022-09-29T03:53:51.358Z,98423.28
2022-09-29T03:54:40.129Z,98420.00
2022-09-29T03:55:31.625Z,98424.34
2022-09-29T03:56:27.509Z,98425.16
2022-09-29T03:57:22.226Z,98432.72
2022-09-29T03:58:06.946Z,98430.03
2022-09-29T03:59:35.165Z,98430.22
2022-09-29T04:00:25.933Z,98431.63
2022-09-29T04:01:27.251Z,98428.66
2022-09-29T04:02:20.100Z,98426.81
2022-09-29T04:03:13.630Z,98427.47
2022-09-29T04:04:06.216Z,98428.47
2022-09-29T04:04:56.436Z,98438.06
2022-09-29T04:05:46.591Z,98432.06
2022-09-29T04:07:39.679Z,98424.00
2022-09-29T04:08:33.586Z,98424.63
2022-09-29T04:09:27.166Z,98432.34
2022-09-29T04:10:11.412Z,98437.88
2022-09-29T04:11:05.294Z,98432.34
2022-09-29T04:11:59.936Z,98432.34
2022-09-29T04:12:53.085Z,98431.34
2022-09-29T04:13:46.377Z,98429.16
2022-09-29T04:14:40.816Z,98435.66
2022-09-29T04:15:34.647Z,98431.25
2022-09-29T04:16:27.401Z,98439.25
2022-09-29T04:17:25.922Z,98439.44
2022-09-29T04:18:17.463Z,98436.78
2022-09-29T04:19:06.367Z,98442.09
2022-09-29T04:19:55.622Z,98437.75
2022-09-29T04:20:45.497Z,98445.41
2022-09-29T04:21:42.894Z,98439.72
2022-09-29T04:22:37.808Z,98440.72
2022-09-29T04:23:31.723Z,98439.72
2022-09-29T04:24:25.572Z,98435.19
2022-09-29T04:25:18.685Z,98443.84
2022-09-29T04:26:16.472Z,98443.13
2022-09-29T04:27:10.554Z,98442.31
2022-09-29T04:28:03.609Z,98443.56
2022-09-29T04:29:35.797Z,98449.25
2022-09-29T04:30:24.167Z,98444.94
2022-09-29T04:31:17.756Z,98447.78
2022-09-29T04:32:06.441Z,98443.47
2022-09-29T04:32:57.480Z,98445.88
2022-09-29T04:33:47.963Z,98449.66
2022-09-29T04:34:36.926Z,98446.44
2022-09-29T04:35:28.731Z,98446.44
2022-09-29T04:36:22.706Z,98450.31
2022-09-29T04:37:13.429Z,98453.63
2022-09-29T04:38:00.751Z,98457.94
2022-09-29T04:38:51.147Z,98455.47
2022-09-29T04:39:42.707Z,98455.28
2022-09-29T04:40:35.250Z,98453.63
2022-09-29T04:41:28.783Z,98452.97
2022-09-29T04:42:21.742Z,98457.00
2022-09-29T04:43:09.273Z,98459.97
2022-09-29T04:44:01.413Z,98460.34
2022-09-29T04:44:56.985Z,98458.84
2022-09-29T04:45:48.301Z,98455.81
2022-09-29T04:46:39.579Z,98450.50
2022-09-29T04:47:30.224Z,98453.63
2022-09-29T04:48:16.928Z,98459.13
2022-09-29T04:49:08.982Z,98454.25
2022-09-29T04:50:00.369Z,98453.25
2022-09-29T04:50:53.489Z,98455.28
2022-09-29T04:51:50.657Z,98455.81
2022-09-29T04:52:40.975Z,98454.91
2022-09-29T04:53:34.188Z,98454.22
2022-09-29T04:54:22.427Z,98457.00
2022-09-29T04:55:14.943Z,98454.66
2022-09-29T04:56:09.949Z,98459.31
2022-09-29T04:58:09.014Z,98460.94
2022-09-29T04:59:01.450Z,98464.25
2022-09-29T04:59:52.647Z,98457.25
2022-09-29T05:00:44.963Z,98458.75
2022-09-29T05:01:38.301Z,98457.75
2022-09-29T05:02:32.123Z,98460.03
2022-09-29T05:03:22.724Z,98460.25
2022-09-29T05:04:10.852Z,98462.22
2022-09-29T05:04:59.787Z,98457.00
2022-09-29T05:05:51.638Z,98454.16
2022-09-29T05:06:44.303Z,98463.47
2022-09-29T05:07:40.495Z,98460.44
2022-09-29T05:08:32.771Z,98459.31
2022-09-29T05:09:26.424Z,98466.13
2022-09-29T05:10:19.272Z,98457.50
2022-09-29T05:11:11.220Z,98466.13
2022-09-29T05:12:13.347Z,98463.94
2022-09-29T05:13:02.099Z,98465.31
2022-09-29T05:13:51.432Z,98462.69
2022-09-29T05:14:44.053Z,98464.53
2022-09-29T05:15:34.993Z,98469.41
2022-09-29T05:16:24.134Z,98460.34
2022-09-29T05:17:18.725Z,98469.97
2022-09-29T05:18:11.526Z,98465.31
2022-09-29T05:19:01.756Z,98468.63
2022-09-29T05:19:52.358Z,98463.28
2022-09-29T05:20:44.850Z,98470.66
2022-09-29T05:21:39.797Z,98468.16
2022-09-29T05:22:38.011Z,98476.88
2022-09-29T05:23:30.019Z,98462.34
2022-09-29T05:24:20.985Z,98465.31
2022-09-29T05:25:12.036Z,98466.78
2022-09-29T05:26:02.089Z,98472.28
2022-09-29T05:26:57.537Z,98469.44
2022-09-29T05:27:53.449Z,98470.25
2022-09-29T05:28:44.118Z,98477.28
2022-09-29T05:29:36.982Z,98474.59
2022-09-29T05:30:31.617Z,98480.94
2022-09-29T05:31:25.896Z,98475.59
2022-09-29T05:32:13.332Z,98482.59
2022-09-29T05:33:08.496Z,98473.59
2022-09-29T05:33:58.381Z,98478.94
2022-09-29T05:34:52.684Z,98477.91
2022-09-29T05:35:43.223Z,98475.25
2022-09-29T05:36:38.364Z,98477.63
2022-09-29T05:37:31.285Z,98480.75
2022-09-29T05:38:23.724Z,98490.59
2022-09-29T05:39:12.812Z,98484.28
2022-09-29T05:40:03.061Z,98490.59
2022-09-29T05:40:55.439Z,98486.75
2022-09-29T05:41:50.154Z,98492.09
2022-09-29T05:42:41.239Z,98494.28
2022-09-29T05:43:31.150Z,98487.84
2022-09-29T05:44:22.590Z,98493.81
2022-09-29T05:45:15.336Z,98484.72
2022-09-29T05:46:11.187Z,98497.88
2022-09-29T05:47:11.066Z,98496.72
2022-09-29T05:48:05.634Z,98496.03
2022-09-29T05:49:38.136Z,98495.31
2022-09-29T05:50:32.975Z,98490.50
2022-09-29T05:51:26.504Z,98493.34
2022-09-29T05:52:20.317Z,98496.38
2022-09-29T05:54:11.266Z,98499.50
2022-09-29T05:55:03.951Z,98503.38
2022-09-29T05:55:57.923Z,98502.91
2022-09-29T05:56:56.071Z,98510.44
2022-09-29T05:57:44.025Z,98502.34
2022-09-29T05:58:37.321Z,98505.03
2022-09-29T05:59:29.787Z,98504.72
2022-09-29T06:00:22.610Z,98509.88
2022-09-29T06:01:13.348Z,98501.44
2022-09-29T06:02:10.575Z,98507.03
2022-09-29T06:03:02.963Z,98510.72
2022-09-29T06:03:56.848Z,98501.88
2022-09-29T06:04:50.080Z,98508.59
2022-09-29T06:05:42.361Z,98508.97
2022-09-29T06:06:35.364Z,98506.47
2022-09-29T06:07:38.638Z,98508.13
2022-09-29T06:08:32.576Z,98509.31
2022-09-29T06:09:26.537Z,98509.59
2022-09-29T06:10:19.830Z,98511.38
2022-09-29T06:11:13.619Z,98514.97
2022-09-29T06:12:06.407Z,98508.81
2022-09-29T06:13:00.468Z,98511.66
2022-09-29T06:13:50.414Z,98511.22
2022-09-29T06:14:43.440Z,98509.06
2022-09-29T06:15:37.146Z,98513.59
2022-09-29T06:16:34.892Z,98513.81
2022-09-29T06:17:30.208Z,98512.44
2022-09-29T06:18:24.219Z,98510.97
2022-09-29T06:19:15.999Z,98507.81
2022-09-29T06:20:10.550Z,98507.19
2022-09-29T06:21:01.457Z,98517.50
2022-09-29T06:21:59.799Z,98515.28
2022-09-29T06:22:51.985Z,98512.81
2022-09-29T06:23:44.941Z,98513.81
2022-09-29T06:24:36.464Z,98511.34
2022-09-29T06:25:32.399Z,98513.81
2022-09-29T06:26:24.670Z,98513.16
2022-09-29T06:28:20.913Z,98510.78
2022-09-29T06:29:09.975Z,98515.47
2022-09-29T06:30:04.423Z,98517.13
2022-09-29T06:30:57.543Z,98517.97
2022-09-29T06:31:52.406Z,98512.97
2022-09-29T06:32:39.738Z,98514.84
2022-09-29T06:33:36.952Z,98514.19
2022-09-29T06:34:30.585Z,98515.81
2022-09-29T06:35:24.638Z,98514.00
2022-09-29T06:36:18.010Z,98522.38
2022-09-29T06:37:16.088Z,98522.81
2022-09-29T06:39:16.085Z,98521.50
2022-09-29T06:40:11.345Z,98525.84
2022-09-29T06:41:03.422Z,98525.69
2022-09-29T06:42:01.255Z,98525.50
2022-09-29T06:42:59.371Z,98529.81
2022-09-29T06:43:51.473Z,98525.69
2022-09-29T06:44:45.998Z,98518.78
2022-09-29T06:45:40.373Z,98527.81
2022-09-29T06:46:33.947Z,98526.50
2022-09-29T06:47:28.225Z,98525.31
2022-09-29T06:49:22.187Z,98529.34
2022-09-29T06:50:16.366Z,98539.81
2022-09-29T06:51:09.899Z,98530.66
2022-09-29T06:52:12.551Z,98536.81
2022-09-29T06:53:05.166Z,98540.28
2022-09-29T06:54:07.646Z,98534.50
2022-09-29T06:55:04.127Z,98536.34
2022-09-29T06:55:58.716Z,98542.50
2022-09-29T06:56:53.511Z,98536.00
2022-09-29T06:57:52.501Z,98538.47
2022-09-29T06:58:45.281Z,98537.44
2022-09-29T06:59:39.137Z,98538.84
2022-09-29T07:00:31.257Z,98534.13
2022-09-29T07:01:26.722Z,98537.81
2022-09-29T07:02:25.241Z,98543.81
2022-09-29T07:03:18.956Z,98548.78
2022-09-29T07:04:13.693Z,98550.78
2022-09-29T07:05:08.775Z,98546.31
2022-09-29T07:06:19.752Z,98548.78
2022-09-29T07:07:18.608Z,98546.94
2022-09-29T07:08:14.506Z,98548.47
2022-09-29T07:09:11.146Z,98550.78
2022-09-29T07:10:05.504Z,98545.47
2022-09-29T07:10:59.931Z,98548.78
2022-09-29T07:11:57.872Z,98552.81
2022-09-29T07:12:49.815Z,98552.00
2022-09-29T07:13:40.376Z,98550.78
2022-09-29T07:14:30.985Z,98544.63
2022-09-29T07:15:20.801Z,98549.97
2022-09-29T07:16:15.415Z,98549.16
2022-09-29T07:17:13.540Z,98549.16
2022-09-29T07:18:08.891Z,98550.44
2022-09-29T07:19:04.228Z,98552.47
2022-09-29T07:19:57.639Z,98552.81
2022-09-29T07:20:47.825Z,98546.47
2022-09-29T07:21:40.928Z,98558.78
2022-09-29T07:23:36.863Z,98563.78
2022-09-29T07:24:29.588Z,98554.13
2022-09-29T07:25:46.893Z,98556.78
2022-09-29T07:26:34.395Z,98558.25
2022-09-29T07:27:34.564Z,98559.75
2022-09-29T07:28:28.012Z,98555.88
2022-09-29T07:29:21.504Z,98559.75
2022-09-29T07:30:17.588Z,98557.91
2022-09-29T07:31:18.889Z,98566.25
2022-09-29T07:32:26.107Z,98563.06
2022-09-29T07:33:15.026Z,98557.09
2022-09-29T07:34:07.832Z,98560.22
2022-09-29T07:35:01.072Z,98562.06
2022-09-29T07:35:55.119Z,98576.41
2022-09-29T07:36:50.204Z,98569.03
2022-09-29T07:37:49.285Z,98557.56
2022-09-29T07:40:01.321Z,98568.22
2022-09-29T07:40:53.846Z,98566.38
2022-09-29T07:41:43.807Z,98566.56
2022-09-29T07:42:36.280Z,98569.03
2022-09-29T07:43:27.875Z,98567.41
2022-09-29T07:44:18.648Z,98566.38
2022-09-29T07:45:09.956Z,98566.38
2022-09-29T07:46:01.788Z,98568.41
2022-09-29T07:46:55.171Z,98575.41
2022-09-29T07:48:53.429Z,98566.38
2022-09-29T07:49:45.278Z,98571.53
2022-09-29T07:50:36.362Z,98573.56
2022-09-29T07:51:27.697Z,98569.91
2022-09-29T07:52:23.784Z,98569.03
2022-09-29T07:54:21.870Z,98569.03
2022-09-29T07:55:16.699Z,98569.91
2022-09-29T07:56:09.418Z,98569.03
2022-09-29T07:56:59.996Z,98567.06
2022-09-29T07:57:58.206Z,98568.69
2022-09-29T07:59:47.319Z,98571.72
2022-09-29T08:00:43.363Z,98570.44
2022-09-29T08:01:34.811Z,98573.28
2022-09-29T08:02:27.918Z,98573.44
2022-09-29T08:03:24.711Z,98569.41
2022-09-29T08:04:17.596Z,98567.06
2022-09-29T08:05:12.915Z,98577.53
2022-09-29T08:06:06.045Z,98569.72
2022-09-29T08:06:58.179Z,98573.84
2022-09-29T08:07:49.844Z,98575.06
2022-09-29T08:09:48.310Z,98577.91
2022-09-29T08:10:49.996Z,98577.72
2022-09-29T08:11:45.704Z,98576.06
2022-09-29T08:12:44.001Z,98575.41
2022-09-29T08:13:41.773Z,98575.22
2022-09-29T08:14:34.793Z,98581.38
2022-09-29T08:15:27.554Z,98580.22
2022-09-29T08:16:18.507Z,98582.38
2022-09-29T08:17:12.924Z,98582.09
2022-09-29T08:18:11.406Z,98578.06
2022-09-29T08:19:03.711Z,98573.56
2022-09-29T08:19:55.390Z,98583.41
2022-09-29T08:20:50.266Z,98579.91
2022-09-29T08:21:42.754Z,98581.28
2022-09-29T08:22:36.020Z,98578.44
2022-09-29T08:23:37.801Z,98579.59
2022-09-29T08:24:32.672Z,98578.97
2022-09-29T08:25:27.142Z,98577.59
2022-09-29T08:26:19.199Z,98582.94
2022-09-29T08:27:17.777Z,98583.75
2022-09-29T08:28:24.074Z,98584.06
2022-09-29T08:29:25.467Z,98588.41
2022-09-29T08:30:19.202Z,98582.38
2022-09-29T08:31:10.032Z,98580.63
2022-09-29T08:32:05.902Z,98589.28
2022-09-29T08:32:59.768Z,98592.59
2022-09-29T08:33:58.130Z,98587.06
2022-09-29T08:34:50.860Z,98586.06
2022-09-29T08:35:45.135Z,98595.72
2022-09-29T08:36:39.293Z,98595.53
2022-09-29T08:37:35.099Z,98597.41
2022-09-29T08:38:27.907Z,98597.88
2022-09-29T08:40:25.380Z,98599.88
2022-09-29T08:41:19.951Z,98602.38
2022-09-29T08:42:13.081Z,98598.72
2022-09-29T08:43:11.343Z,98602.19
2022-09-29T08:44:18.528Z,98604.41
2022-09-29T08:45:16.647Z,98597.88
2022-09-29T08:46:12.077Z,98601.19
2022-09-29T08:47:22.026Z,98606.03
2022-09-29T08:48:23.323Z,98604.06
2022-09-29T08:49:30.891Z,98602.03
2022-09-29T08:50:16.798Z,98600.34
2022-09-29T08:51:14.675Z,98602.38
2022-09-29T08:52:16.450Z,98607.34
2022-09-29T08:53:26.729Z,98605.69
2022-09-29T08:54:35.498Z,98604.22
2022-09-29T08:55:22.117Z,98613.06
2022-09-29T08:56:12.036Z,98606.72
2022-09-29T08:57:06.267Z,98609.25
2022-09-29T08:58:01.593Z,98607.72
2022-09-29T08:58:51.669Z,98610.72
2022-09-29T08:59:39.018Z,98605.50
2022-09-29T09:00:37.518Z,98610.22
2022-09-29T09:01:35.206Z,98610.38
2022-09-29T09:02:28.650Z,98612.06
2022-09-29T09:03:21.215Z,98609.38
2022-09-29T09:04:07.851Z,98620.06
2022-09-29T09:04:49.228Z,98611.19
2022-09-29T09:05:37.266Z,98615.06
2022-09-29T09:06:40.728Z,98615.72
2022-09-29T09:07:33.090Z,98618.03
2022-09-29T09:08:25.991Z,98613.69
2022-09-29T09:09:18.146Z,98617.56
2022-09-29T09:10:02.095Z,98615.41
2022-09-29T09:10:57.741Z,98619.09
2022-09-29T09:11:43.710Z,98620.75
2022-09-29T09:12:36.777Z,98616.06
2022-09-29T09:13:29.416Z,98615.91
2022-09-29T09:14:34.024Z,98619.22
2022-09-29T09:15:33.218Z,98621.22
2022-09-29T09:16:17.005Z,98618.56
2022-09-29T09:17:03.844Z,98615.91
2022-09-29T09:18:08.481Z,98618.75
2022-09-29T09:20:17.817Z,98620.06
2022-09-29T09:21:29.031Z,98621.22
2022-09-29T09:22:14.591Z,98619.22
2022-09-29T09:23:15.769Z,98615.72
2022-09-29T09:24:20.354Z,98622.41
2022-09-29T09:25:26.065Z,98619.72
2022-09-29T09:26:20.641Z,98625.56
2022-09-29T09:27:27.546Z,98623.91
2022-09-29T09:28:22.604Z,98623.06
2022-09-29T09:29:12.693Z,98623.44
2022-09-29T09:30:05.889Z,98623.44
2022-09-29T09:30:48.949Z,98627.72
2022-09-29T09:31:39.349Z,98620.41
2022-09-29T09:32:33.215Z,98615.91
2022-09-29T09:33:32.429Z,98621.41
2022-09-29T09:34:14.082Z,98620.41
2022-09-29T09:35:21.825Z,98618.38
2022-09-29T09:36:30.390Z,98615.41
2022-09-29T09:37:26.624Z,98620.88
2022-09-29T09:38:27.014Z,98620.41
2022-09-29T09:39:28.524Z,98621.06
2022-09-29T09:40:18.254Z,98617.75
2022-09-29T09:41:10.239Z,98623.06
2022-09-29T09:42:01.487Z,98618.38
2022-09-29T09:42:56.142Z,98625.41
2022-09-29T09:43:51.076Z,98623.06
2022-09-29T09:44:50.330Z,98624.91
2022-09-29T09:45:45.264Z,98615.06
2022-09-29T09:46:38.107Z,98618.56
2022-09-29T09:47:20.582Z,98615.06
2022-09-29T09:48:31.409Z,98618.38
2022-09-29T09:49:25.490Z,98624.91
2022-09-29T09:50:26.506Z,98624.06
2022-09-29T09:51:26.193Z,98621.41
2022-09-29T09:52:34.180Z,98621.56
2022-09-29T09:54:46.112Z,98617.91
2022-09-29T09:55:38.033Z,98620.41
2022-09-29T09:56:19.155Z,98621.41
2022-09-29T09:57:11.619Z,98625.75
2022-09-29T09:58:08.365Z,98621.94
2022-09-29T09:59:13.441Z,98630.41
2022-09-29T09:59:56.591Z,98621.22
2022-09-29T10:00:54.261Z,98623.91
2022-09-29T10:01:45.498Z,98626.22
2022-09-29T10:02:35.633Z,98632.03
2022-09-29T10:03:26.627Z,98624.91
2022-09-29T10:04:24.664Z,98624.25
2022-09-29T10:05:16.687Z,98632.44
2022-09-29T10:06:08.890Z,98626.09
2022-09-29T10:07:02.874Z,98630.09
2022-09-29T10:07:57.930Z,98627.09
2022-09-29T10:08:49.347Z,98620.41
2022-09-29T10:10:57.447Z,98622.22
2022-09-29T10:11:50.937Z,98628.09
2022-09-29T10:12:44.952Z,98624.78
2022-09-29T10:13:42.683Z,98629.13
2022-09-29T10:14:36.651Z,98633.41
2022-09-29T10:15:30.187Z,98627.44
2022-09-29T10:16:16.507Z,98631.59
2022-09-29T10:17:10.811Z,98627.72
2022-09-29T10:18:03.992Z,98626.09
2022-09-29T10:19:52.842Z,98627.03
2022-09-29T10:20:49.285Z,98624.06
2022-09-29T10:21:30.562Z,98621.34
2022-09-29T10:22:29.740Z,98621.06
2022-09-29T10:23:36.556Z,98621.88
2022-09-29T10:24:34.460Z,98625.41
2022-09-29T10:25:34.519Z,98624.19
2022-09-29T10:26:30.474Z,98625.56
2022-09-29T10:27:24.434Z,98631.72
2022-09-29T10:28:21.030Z,98624.06
2022-09-29T10:29:24.958Z,98627.09
2022-09-29T10:30:19.408Z,98624.53
2022-09-29T10:31:13.436Z,98625.41
2022-09-29T10:32:22.601Z,98623.06
2022-09-29T10:33:14.080Z,98622.97
2022-09-29T10:34:19.698Z,98624.25
2022-09-29T10:35:10.787Z,98626.56
2022-09-29T10:36:01.026Z,98628.72
2022-09-29T10:37:04.434Z,98618.03
2022-09-29T10:37:55.508Z,98623.72
2022-09-29T10:38:46.113Z,98624.19
2022-09-29T10:39:40.628Z,98627.22
2022-09-29T10:40:32.825Z,98621.34
2022-09-29T10:41:22.990Z,98623.59
2022-09-29T10:42:17.071Z,98624.06
2022-09-29T10:43:09.260Z,98629.75
2022-09-29T10:44:03.419Z,98629.59
2022-09-29T10:44:55.467Z,98627.03
2022-09-29T10:45:47.659Z,98636.72
2022-09-29T10:46:49.890Z,98630.34
2022-09-29T10:47:42.756Z,98631.72
2022-09-29T10:48:39.295Z,98630.16
2022-09-29T10:49:39.333Z,98634.03
2022-09-29T10:50:34.892Z,98628.88
2022-09-29T10:51:27.880Z,98627.22
2022-09-29T10:52:19.120Z,98624.53
2022-09-29T10:53:13.165Z,98632.19
2022-09-29T10:54:04.202Z,98637.72